sensor_id;sensor_type;location;lat;lon;timestamp;temperature;humidity
9730;DHT22;4904;49.152;11.004;2023-04-03T00:00:59;4.40;99.90
9730;DHT22;4904;49.152;11.004;2023-04-03T00:03:27;4.40;99.90
9730;DHT22;4904;49.152;11.004;2023-04-03T00:05:55;4.40;99.90
9730;DHT22;4904;49.152;11.004;2023-04-03T00:08:22;4.50;99.90
9730;DHT22;4904;49.152;11.004;2023-04-03T00:10:51;4.50;99.90
9730;DHT22;4904;49.152;11.004;2023-04-03T00:13:18;4.50;99.90
9730;DHT22;4904;49.152;11.004;2023-04-03T00:15:45;4.50;99.90
9730;DHT22;4904;49.152;11.004;2023-04-03T00:18:12;4.50;99.90
9730;DHT22;4904;49.152;11.004;2023-04-03T00:20:39;4.50;99.90
9730;DHT22;4904;49.152;11.004;2023-04-03T00:23:08;4.40;99.90
9730;DHT22;4904;49.152;11.004;2023-04-03T00:25:35;4.30;99.90
9730;DHT22;4904;49.152;11.004;2023-04-03T00:28:03;4.30;99.90
9730;DHT22;4904;49.152;11.004;2023-04-03T00:30:30;4.40;99.90
9730;DHT22;4904;49.152;11.004;2023-04-03T00:32:58;4.30;99.90
9730;DHT22;4904;49.152;11.004;2023-04-03T00:35:26;4.50;99.90
9730;DHT22;4904;49.152;11.004;2023-04-03T00:37:55;4.30;99.90
9730;DHT22;4904;49.152;11.004;2023-04-03T00:40:25;4.30;99.90
9730;DHT22;4904;49.152;11.004;2023-04-03T00:42:56;4.40;99.90
9730;DHT22;4904;49.152;11.004;2023-04-03T00:45:35;4.30;99.90
9730;DHT22;4904;49.152;11.004;2023-04-03T00:48:05;4.20;99.90
9730;DHT22;4904;49.152;11.004;2023-04-03T00:50:34;4.10;99.90
9730;DHT22;4904;49.152;11.004;2023-04-03T00:53:02;4.00;99.90
9730;DHT22;4904;49.152;11.004;2023-04-03T00:55:31;4.00;99.90
9730;DHT22;4904;49.152;11.004;2023-04-03T00:57:59;4.10;99.90
9730;DHT22;4904;49.152;11.004;2023-04-03T01:00:27;4.10;99.90
9730;DHT22;4904;49.152;11.004;2023-04-03T01:02:54;4.10;99.90
9730;DHT22;4904;49.152;11.004;2023-04-03T01:05:21;4.10;99.90
9730;DHT22;4904;49.152;11.004;2023-04-03T01:07:49;4.10;99.90
9730;DHT22;4904;49.152;11.004;2023-04-03T01:10:18;4.20;99.90
9730;DHT22;4904;49.152;11.004;2023-04-03T01:12:48;4.20;99.90
9730;DHT22;4904;49.152;11.004;2023-04-03T01:15:18;4.20;99.90
9730;DHT22;4904;49.152;11.004;2023-04-03T01:17:47;4.10;99.90
9730;DHT22;4904;49.152;11.004;2023-04-03T01:23:48;4.10;99.90
9730;DHT22;4904;49.152;11.004;2023-04-03T01:26:18;4.00;99.90
9730;DHT22;4904;49.152;11.004;2023-04-03T01:28:48;4.00;99.90
9730;DHT22;4904;49.152;11.004;2023-04-03T01:31:20;3.90;99.90
9730;DHT22;4904;49.152;11.004;2023-04-03T01:33:50;3.90;99.90
9730;DHT22;4904;49.152;11.004;2023-04-03T01:36:20;3.90;99.90
9730;DHT22;4904;49.152;11.004;2023-04-03T01:38:47;3.90;99.90
9730;DHT22;4904;49.152;11.004;2023-04-03T01:41:14;3.90;99.90
9730;DHT22;4904;49.152;11.004;2023-04-03T01:43:41;4.00;99.90
9730;DHT22;4904;49.152;11.004;2023-04-03T01:46:08;4.00;99.90
9730;DHT22;4904;49.152;11.004;2023-04-03T01:48:35;4.00;99.90
9730;DHT22;4904;49.152;11.004;2023-04-03T01:51:04;4.00;99.90
9730;DHT22;4904;49.152;11.004;2023-04-03T01:53:31;4.00;99.90
9730;DHT22;4904;49.152;11.004;2023-04-03T01:55:58;4.00;99.90
9730;DHT22;4904;49.152;11.004;2023-04-03T01:58:24;4.00;99.90
9730;DHT22;4904;49.152;11.004;2023-04-03T02:00:52;3.90;99.90
9730;DHT22;4904;49.152;11.004;2023-04-03T02:03:19;3.90;99.90
9730;DHT22;4904;49.152;11.004;2023-04-03T02:05:47;3.90;99.90
9730;DHT22;4904;49.152;11.004;2023-04-03T02:08:15;3.90;99.90
9730;DHT22;4904;49.152;11.004;2023-04-03T02:10:43;3.80;99.90
9730;DHT22;4904;49.152;11.004;2023-04-03T02:13:10;3.90;99.90
9730;DHT22;4904;49.152;11.004;2023-04-03T02:15:38;3.90;99.90
9730;DHT22;4904;49.152;11.004;2023-04-03T02:18:05;3.90;99.90
9730;DHT22;4904;49.152;11.004;2023-04-03T02:20:32;4.00;99.90
9730;DHT22;4904;49.152;11.004;2023-04-03T02:22:59;4.00;99.90
9730;DHT22;4904;49.152;11.004;2023-04-03T02:25:28;4.00;99.90
9730;DHT22;4904;49.152;11.004;2023-04-03T02:27:55;4.00;99.90
9730;DHT22;4904;49.152;11.004;2023-04-03T02:30:22;4.00;99.90
9730;DHT22;4904;49.152;11.004;2023-04-03T02:32:48;4.00;99.90
9730;DHT22;4904;49.152;11.004;2023-04-03T02:35:15;4.00;99.90
9730;DHT22;4904;49.152;11.004;2023-04-03T02:37:42;4.00;99.90
9730;DHT22;4904;49.152;11.004;2023-04-03T02:40:09;4.00;99.90
9730;DHT22;4904;49.152;11.004;2023-04-03T02:42:38;4.10;99.90
9730;DHT22;4904;49.152;11.004;2023-04-03T02:45:06;4.00;99.90
9730;DHT22;4904;49.152;11.004;2023-04-03T02:47:33;4.00;99.90
9730;DHT22;4904;49.152;11.004;2023-04-03T02:50:00;4.00;99.90
9730;DHT22;4904;49.152;11.004;2023-04-03T02:52:27;4.00;99.90
9730;DHT22;4904;49.152;11.004;2023-04-03T02:54:54;4.00;99.90
9730;DHT22;4904;49.152;11.004;2023-04-03T02:57:21;4.00;99.90
9730;DHT22;4904;49.152;11.004;2023-04-03T02:59:49;4.00;99.90
9730;DHT22;4904;49.152;11.004;2023-04-03T03:02:16;4.10;99.90
9730;DHT22;4904;49.152;11.004;2023-04-03T03:04:43;4.10;99.90
9730;DHT22;4904;49.152;11.004;2023-04-03T03:07:09;4.10;99.90
9730;DHT22;4904;49.152;11.004;2023-04-03T03:09:36;4.10;99.90
9730;DHT22;4904;49.152;11.004;2023-04-03T03:12:03;4.10;99.90
9730;DHT22;4904;49.152;11.004;2023-04-03T03:14:30;4.20;99.90
9730;DHT22;4904;49.152;11.004;2023-04-03T03:16:58;4.10;99.90
9730;DHT22;4904;49.152;11.004;2023-04-03T03:19:25;4.20;99.90
9730;DHT22;4904;49.152;11.004;2023-04-03T03:21:52;4.10;99.90
9730;DHT22;4904;49.152;11.004;2023-04-03T03:24:19;4.10;99.90
9730;DHT22;4904;49.152;11.004;2023-04-03T03:26:46;4.10;99.90
9730;DHT22;4904;49.152;11.004;2023-04-03T03:29:13;4.10;99.90
9730;DHT22;4904;49.152;11.004;2023-04-03T03:31:40;4.10;99.90
9730;DHT22;4904;49.152;11.004;2023-04-03T03:34:08;4.10;99.90
9730;DHT22;4904;49.152;11.004;2023-04-03T03:36:35;4.10;99.90
9730;DHT22;4904;49.152;11.004;2023-04-03T03:39:02;4.10;99.90
9730;DHT22;4904;49.152;11.004;2023-04-03T03:41:29;4.00;99.90
9730;DHT22;4904;49.152;11.004;2023-04-03T03:43:56;4.00;99.90
9730;DHT22;4904;49.152;11.004;2023-04-03T03:46:23;4.00;99.90
9730;DHT22;4904;49.152;11.004;2023-04-03T03:48:50;4.00;99.90
9730;DHT22;4904;49.152;11.004;2023-04-03T03:51:18;4.00;99.90
9730;DHT22;4904;49.152;11.004;2023-04-03T03:53:45;4.00;99.90
9730;DHT22;4904;49.152;11.004;2023-04-03T03:56:12;3.90;99.90
9730;DHT22;4904;49.152;11.004;2023-04-03T03:58:39;3.90;99.90
9730;DHT22;4904;49.152;11.004;2023-04-03T04:01:06;3.90;99.90
9730;DHT22;4904;49.152;11.004;2023-04-03T04:03:33;3.90;99.90
9730;DHT22;4904;49.152;11.004;2023-04-03T04:06:00;3.90;99.90
9730;DHT22;4904;49.152;11.004;2023-04-03T04:08:29;3.90;99.90
9730;DHT22;4904;49.152;11.004;2023-04-03T04:10:55;3.90;99.90
9730;DHT22;4904;49.152;11.004;2023-04-03T04:13:23;3.90;99.90
9730;DHT22;4904;49.152;11.004;2023-04-03T04:15:49;3.90;99.90
9730;DHT22;4904;49.152;11.004;2023-04-03T04:18:16;3.80;99.90
9730;DHT22;4904;49.152;11.004;2023-04-03T04:20:45;3.80;99.90
9730;DHT22;4904;49.152;11.004;2023-04-03T04:23:12;3.80;99.90
9730;DHT22;4904;49.152;11.004;2023-04-03T04:25:40;3.80;99.90
9730;DHT22;4904;49.152;11.004;2023-04-03T04:28:07;3.80;99.90
9730;DHT22;4904;49.152;11.004;2023-04-03T04:30:34;3.80;99.90
9730;DHT22;4904;49.152;11.004;2023-04-03T04:33:01;3.80;99.90
9730;DHT22;4904;49.152;11.004;2023-04-03T04:35:28;3.80;99.90
9730;DHT22;4904;49.152;11.004;2023-04-03T04:37:55;3.80;99.90
9730;DHT22;4904;49.152;11.004;2023-04-03T04:40:22;3.70;99.90
9730;DHT22;4904;49.152;11.004;2023-04-03T04:42:50;3.60;99.90
9730;DHT22;4904;49.152;11.004;2023-04-03T04:45:17;3.50;99.90
9730;DHT22;4904;49.152;11.004;2023-04-03T04:47:44;3.50;99.90
9730;DHT22;4904;49.152;11.004;2023-04-03T04:50:11;3.50;99.90
9730;DHT22;4904;49.152;11.004;2023-04-03T04:52:38;3.50;99.90
9730;DHT22;4904;49.152;11.004;2023-04-03T04:55:06;3.60;99.90
9730;DHT22;4904;49.152;11.004;2023-04-03T04:57:33;3.60;99.90
9730;DHT22;4904;49.152;11.004;2023-04-03T05:00:02;3.60;99.90
9730;DHT22;4904;49.152;11.004;2023-04-03T05:02:29;3.60;99.90
9730;DHT22;4904;49.152;11.004;2023-04-03T05:04:56;3.70;99.90
9730;DHT22;4904;49.152;11.004;2023-04-03T05:07:23;3.60;99.90
9730;DHT22;4904;49.152;11.004;2023-04-03T05:09:50;3.60;99.90
9730;DHT22;4904;49.152;11.004;2023-04-03T05:12:17;3.60;99.90
9730;DHT22;4904;49.152;11.004;2023-04-03T05:14:44;3.60;99.90
9730;DHT22;4904;49.152;11.004;2023-04-03T05:17:12;3.40;99.90
9730;DHT22;4904;49.152;11.004;2023-04-03T05:19:39;3.40;99.90
9730;DHT22;4904;49.152;11.004;2023-04-03T05:22:06;3.30;99.90
9730;DHT22;4904;49.152;11.004;2023-04-03T05:24:32;3.30;99.90
9730;DHT22;4904;49.152;11.004;2023-04-03T05:26:59;3.30;99.90
9730;DHT22;4904;49.152;11.004;2023-04-03T05:29:26;3.30;99.90
9730;DHT22;4904;49.152;11.004;2023-04-03T05:31:53;3.30;99.90
9730;DHT22;4904;49.152;11.004;2023-04-03T05:34:22;3.20;99.90
9730;DHT22;4904;49.152;11.004;2023-04-03T05:36:49;3.20;99.90
9730;DHT22;4904;49.152;11.004;2023-04-03T05:39:15;3.20;99.90
9730;DHT22;4904;49.152;11.004;2023-04-03T05:41:42;3.30;99.90
9730;DHT22;4904;49.152;11.004;2023-04-03T05:44:09;3.30;99.90
9730;DHT22;4904;49.152;11.004;2023-04-03T05:46:36;3.30;99.90
9730;DHT22;4904;49.152;11.004;2023-04-03T05:49:03;3.20;99.90
9730;DHT22;4904;49.152;11.004;2023-04-03T05:51:34;3.40;99.90
9730;DHT22;4904;49.152;11.004;2023-04-03T05:54:08;3.30;99.90
9730;DHT22;4904;49.152;11.004;2023-04-03T05:56:36;3.20;99.90
9730;DHT22;4904;49.152;11.004;2023-04-03T05:59:03;3.30;99.90
9730;DHT22;4904;49.152;11.004;2023-04-03T06:01:30;3.20;99.90
9730;DHT22;4904;49.152;11.004;2023-04-03T06:03:56;3.20;99.90
9730;DHT22;4904;49.152;11.004;2023-04-03T06:06:24;3.30;99.90
9730;DHT22;4904;49.152;11.004;2023-04-03T06:08:52;3.30;99.90
9730;DHT22;4904;49.152;11.004;2023-04-03T06:11:19;3.30;99.90
9730;DHT22;4904;49.152;11.004;2023-04-03T06:13:47;3.30;99.90
9730;DHT22;4904;49.152;11.004;2023-04-03T06:16:15;3.30;99.90
9730;DHT22;4904;49.152;11.004;2023-04-03T06:18:43;3.30;99.90
9730;DHT22;4904;49.152;11.004;2023-04-03T06:21:10;3.30;99.90
9730;DHT22;4904;49.152;11.004;2023-04-03T06:23:37;3.30;99.90
9730;DHT22;4904;49.152;11.004;2023-04-03T06:26:05;3.40;99.90
9730;DHT22;4904;49.152;11.004;2023-04-03T06:28:32;3.50;99.90
9730;DHT22;4904;49.152;11.004;2023-04-03T06:30:59;3.50;99.90
9730;DHT22;4904;49.152;11.004;2023-04-03T06:33:26;3.70;99.90
9730;DHT22;4904;49.152;11.004;2023-04-03T06:35:57;3.60;99.90
9730;DHT22;4904;49.152;11.004;2023-04-03T06:38:24;3.60;99.90
9730;DHT22;4904;49.152;11.004;2023-04-03T06:40:51;3.70;99.90
9730;DHT22;4904;49.152;11.004;2023-04-03T06:43:20;3.70;99.90
9730;DHT22;4904;49.152;11.004;2023-04-03T06:45:47;3.80;99.90
9730;DHT22;4904;49.152;11.004;2023-04-03T06:48:14;3.70;99.90
9730;DHT22;4904;49.152;11.004;2023-04-03T06:50:41;3.50;99.90
9730;DHT22;4904;49.152;11.004;2023-04-03T06:53:08;3.50;99.90
9730;DHT22;4904;49.152;11.004;2023-04-03T06:55:35;3.50;99.90
9730;DHT22;4904;49.152;11.004;2023-04-03T06:58:03;3.50;99.90
9730;DHT22;4904;49.152;11.004;2023-04-03T07:00:31;3.50;99.90
9730;DHT22;4904;49.152;11.004;2023-04-03T07:02:58;3.50;99.90
9730;DHT22;4904;49.152;11.004;2023-04-03T07:05:25;3.50;99.90
9730;DHT22;4904;49.152;11.004;2023-04-03T07:07:53;3.50;99.90
9730;DHT22;4904;49.152;11.004;2023-04-03T07:10:20;3.60;99.90
9730;DHT22;4904;49.152;11.004;2023-04-03T07:12:46;3.70;99.90
9730;DHT22;4904;49.152;11.004;2023-04-03T07:15:13;3.90;99.90
9730;DHT22;4904;49.152;11.004;2023-04-03T07:17:42;4.00;99.90
9730;DHT22;4904;49.152;11.004;2023-04-03T07:20:09;3.80;99.90
9730;DHT22;4904;49.152;11.004;2023-04-03T07:22:37;4.00;99.90
9730;DHT22;4904;49.152;11.004;2023-04-03T07:25:05;3.90;99.90
9730;DHT22;4904;49.152;11.004;2023-04-03T07:27:33;4.00;99.90
9730;DHT22;4904;49.152;11.004;2023-04-03T07:30:00;4.00;99.90
9730;DHT22;4904;49.152;11.004;2023-04-03T07:32:27;4.00;99.90
9730;DHT22;4904;49.152;11.004;2023-04-03T07:34:55;4.00;99.90
9730;DHT22;4904;49.152;11.004;2023-04-03T07:37:22;4.10;99.90
9730;DHT22;4904;49.152;11.004;2023-04-03T07:39:49;4.10;99.90
9730;DHT22;4904;49.152;11.004;2023-04-03T07:42:16;4.10;99.90
9730;DHT22;4904;49.152;11.004;2023-04-03T07:44:43;4.10;99.90
9730;DHT22;4904;49.152;11.004;2023-04-03T07:47:10;4.20;99.90
9730;DHT22;4904;49.152;11.004;2023-04-03T07:49:37;4.30;99.90
9730;DHT22;4904;49.152;11.004;2023-04-03T07:52:07;4.30;99.90
9730;DHT22;4904;49.152;11.004;2023-04-03T07:54:35;4.40;99.90
9730;DHT22;4904;49.152;11.004;2023-04-03T07:57:02;4.40;99.90
9730;DHT22;4904;49.152;11.004;2023-04-03T07:59:29;4.40;99.90
9730;DHT22;4904;49.152;11.004;2023-04-03T08:01:56;4.50;99.90
9730;DHT22;4904;49.152;11.004;2023-04-03T08:04:23;4.70;99.90
9730;DHT22;4904;49.152;11.004;2023-04-03T08:06:50;4.50;99.90
9730;DHT22;4904;49.152;11.004;2023-04-03T08:09:18;4.60;99.90
9730;DHT22;4904;49.152;11.004;2023-04-03T08:11:45;4.80;99.90
9730;DHT22;4904;49.152;11.004;2023-04-03T08:14:13;4.80;99.90
9730;DHT22;4904;49.152;11.004;2023-04-03T08:16:44;4.80;99.90
9730;DHT22;4904;49.152;11.004;2023-04-03T08:19:11;4.90;99.90
9730;DHT22;4904;49.152;11.004;2023-04-03T08:21:41;4.90;99.90
9730;DHT22;4904;49.152;11.004;2023-04-03T08:24:08;4.80;99.90
9730;DHT22;4904;49.152;11.004;2023-04-03T08:26:36;4.90;99.90
9730;DHT22;4904;49.152;11.004;2023-04-03T08:29:03;5.10;99.90
9730;DHT22;4904;49.152;11.004;2023-04-03T08:31:30;5.10;99.90
9730;DHT22;4904;49.152;11.004;2023-04-03T08:33:57;5.10;99.90
9730;DHT22;4904;49.152;11.004;2023-04-03T08:36:26;5.20;99.90
9730;DHT22;4904;49.152;11.004;2023-04-03T08:38:54;5.10;99.90
9730;DHT22;4904;49.152;11.004;2023-04-03T08:41:29;5.20;99.90
9730;DHT22;4904;49.152;11.004;2023-04-03T08:44:04;5.40;99.90
9730;DHT22;4904;49.152;11.004;2023-04-03T08:46:43;5.40;99.90
9730;DHT22;4904;49.152;11.004;2023-04-03T08:49:21;5.40;99.90
9730;DHT22;4904;49.152;11.004;2023-04-03T08:51:50;5.30;99.90
9730;DHT22;4904;49.152;11.004;2023-04-03T08:54:25;5.20;99.90
9730;DHT22;4904;49.152;11.004;2023-04-03T08:56:55;5.30;99.90
9730;DHT22;4904;49.152;11.004;2023-04-03T08:59:28;5.40;99.90
9730;DHT22;4904;49.152;11.004;2023-04-03T09:01:58;5.40;99.90
9730;DHT22;4904;49.152;11.004;2023-04-03T09:04:29;5.40;99.90
9730;DHT22;4904;49.152;11.004;2023-04-03T09:07:03;5.40;99.90
9730;DHT22;4904;49.152;11.004;2023-04-03T09:09:36;5.40;99.90
9730;DHT22;4904;49.152;11.004;2023-04-03T09:12:15;5.40;99.90
9730;DHT22;4904;49.152;11.004;2023-04-03T09:14:49;5.40;99.90
9730;DHT22;4904;49.152;11.004;2023-04-03T09:17:24;5.40;99.90
9730;DHT22;4904;49.152;11.004;2023-04-03T09:19:58;5.30;99.90
9730;DHT22;4904;49.152;11.004;2023-04-03T09:22:31;5.20;99.90
9730;DHT22;4904;49.152;11.004;2023-04-03T09:25:02;5.20;99.90
9730;DHT22;4904;49.152;11.004;2023-04-03T09:27:33;5.40;99.90
9730;DHT22;4904;49.152;11.004;2023-04-03T09:30:01;5.40;99.90
9730;DHT22;4904;49.152;11.004;2023-04-03T09:32:30;5.50;99.90
9730;DHT22;4904;49.152;11.004;2023-04-03T09:35:01;5.60;99.90
9730;DHT22;4904;49.152;11.004;2023-04-03T09:37:39;5.50;99.90
9730;DHT22;4904;49.152;11.004;2023-04-03T09:40:28;5.50;99.90
9730;DHT22;4904;49.152;11.004;2023-04-03T09:42:56;5.60;99.90
9730;DHT22;4904;49.152;11.004;2023-04-03T09:45:27;5.70;99.90
9730;DHT22;4904;49.152;11.004;2023-04-03T09:48:07;5.80;99.90
9730;DHT22;4904;49.152;11.004;2023-04-03T09:50:35;5.80;99.90
9730;DHT22;4904;49.152;11.004;2023-04-03T09:53:07;5.80;99.90
9730;DHT22;4904;49.152;11.004;2023-04-03T09:55:44;5.80;99.90
9730;DHT22;4904;49.152;11.004;2023-04-03T09:58:25;6.00;99.90
9730;DHT22;4904;49.152;11.004;2023-04-03T10:00:58;6.00;99.90
9730;DHT22;4904;49.152;11.004;2023-04-03T10:03:29;5.90;99.90
9730;DHT22;4904;49.152;11.004;2023-04-03T10:05:56;6.00;99.90
9730;DHT22;4904;49.152;11.004;2023-04-03T10:08:27;6.10;99.90
9730;DHT22;4904;49.152;11.004;2023-04-03T10:11:13;6.20;99.90
9730;DHT22;4904;49.152;11.004;2023-04-03T10:13:53;6.20;99.90
9730;DHT22;4904;49.152;11.004;2023-04-03T10:16:26;6.40;99.90
9730;DHT22;4904;49.152;11.004;2023-04-03T10:19:06;6.30;99.90
9730;DHT22;4904;49.152;11.004;2023-04-03T10:21:43;6.40;99.90
9730;DHT22;4904;49.152;11.004;2023-04-03T10:24:14;6.40;99.90
9730;DHT22;4904;49.152;11.004;2023-04-03T10:26:54;6.40;99.90
9730;DHT22;4904;49.152;11.004;2023-04-03T10:29:35;6.40;99.90
9730;DHT22;4904;49.152;11.004;2023-04-03T10:34:54;6.60;99.90
9730;DHT22;4904;49.152;11.004;2023-04-03T10:37:25;6.50;99.90
9730;DHT22;4904;49.152;11.004;2023-04-03T10:39:57;6.40;99.90
9730;DHT22;4904;49.152;11.004;2023-04-03T10:42:31;6.50;99.90
9730;DHT22;4904;49.152;11.004;2023-04-03T10:45:15;6.40;99.90
9730;DHT22;4904;49.152;11.004;2023-04-03T10:47:54;6.20;99.90
9730;DHT22;4904;49.152;11.004;2023-04-03T10:50:31;6.20;99.90
9730;DHT22;4904;49.152;11.004;2023-04-03T10:53:08;6.10;99.90
9730;DHT22;4904;49.152;11.004;2023-04-03T10:55:43;6.10;99.90
9730;DHT22;4904;49.152;11.004;2023-04-03T10:58:19;6.10;99.90
9730;DHT22;4904;49.152;11.004;2023-04-03T11:00:49;6.10;99.90
9730;DHT22;4904;49.152;11.004;2023-04-03T11:03:27;6.20;99.90
9730;DHT22;4904;49.152;11.004;2023-04-03T11:05:57;6.40;99.90
9730;DHT22;4904;49.152;11.004;2023-04-03T11:08:29;6.40;99.90
9730;DHT22;4904;49.152;11.004;2023-04-03T11:11:01;6.60;99.90
9730;DHT22;4904;49.152;11.004;2023-04-03T11:13:34;6.60;99.90
9730;DHT22;4904;49.152;11.004;2023-04-03T11:16:03;6.50;99.90
9730;DHT22;4904;49.152;11.004;2023-04-03T11:18:37;6.40;99.90
9730;DHT22;4904;49.152;11.004;2023-04-03T11:21:09;6.30;99.90
9730;DHT22;4904;49.152;11.004;2023-04-03T11:23:37;6.30;99.90
9730;DHT22;4904;49.152;11.004;2023-04-03T11:26:10;6.40;99.90
9730;DHT22;4904;49.152;11.004;2023-04-03T11:28:38;6.70;99.90
9730;DHT22;4904;49.152;11.004;2023-04-03T11:31:15;7.00;99.90
9730;DHT22;4904;49.152;11.004;2023-04-03T11:33:58;7.20;99.90
9730;DHT22;4904;49.152;11.004;2023-04-03T11:36:30;7.30;99.90
9730;DHT22;4904;49.152;11.004;2023-04-03T11:39:02;7.40;99.90
9730;DHT22;4904;49.152;11.004;2023-04-03T11:41:33;7.30;99.90
9730;DHT22;4904;49.152;11.004;2023-04-03T11:44:02;7.20;99.90
9730;DHT22;4904;49.152;11.004;2023-04-03T11:46:52;7.30;99.90
9730;DHT22;4904;49.152;11.004;2023-04-03T11:49:59;7.40;99.90
9730;DHT22;4904;49.152;11.004;2023-04-03T11:52:55;7.40;99.90
9730;DHT22;4904;49.152;11.004;2023-04-03T11:55:59;7.30;99.90
9730;DHT22;4904;49.152;11.004;2023-04-03T11:58:28;7.30;99.90
9730;DHT22;4904;49.152;11.004;2023-04-03T12:01:00;7.20;99.90
9730;DHT22;4904;49.152;11.004;2023-04-03T12:04:03;7.10;99.90
9730;DHT22;4904;49.152;11.004;2023-04-03T12:10:01;7.20;99.90
9730;DHT22;4904;49.152;11.004;2023-04-03T12:12:30;7.20;99.90
9730;DHT22;4904;49.152;11.004;2023-04-03T12:15:20;7.40;99.90
9730;DHT22;4904;49.152;11.004;2023-04-03T12:17:48;7.60;99.90
9730;DHT22;4904;49.152;11.004;2023-04-03T12:20:52;7.90;99.90
9730;DHT22;4904;49.152;11.004;2023-04-03T12:23:29;8.10;99.90
9730;DHT22;4904;49.152;11.004;2023-04-03T12:26:03;8.30;99.90
9730;DHT22;4904;49.152;11.004;2023-04-03T12:28:37;8.30;99.90
9730;DHT22;4904;49.152;11.004;2023-04-03T12:31:08;8.50;99.90
9730;DHT22;4904;49.152;11.004;2023-04-03T12:33:47;8.30;99.90
9730;DHT22;4904;49.152;11.004;2023-04-03T12:36:28;8.00;99.90
9730;DHT22;4904;49.152;11.004;2023-04-03T12:39:16;7.90;99.90
9730;DHT22;4904;49.152;11.004;2023-04-03T12:41:52;8.10;99.90
9730;DHT22;4904;49.152;11.004;2023-04-03T12:44:31;8.30;99.90
9730;DHT22;4904;49.152;11.004;2023-04-03T12:47:16;8.50;99.90
9730;DHT22;4904;49.152;11.004;2023-04-03T12:49:44;8.60;99.90
9730;DHT22;4904;49.152;11.004;2023-04-03T12:52:20;8.90;99.90
9730;DHT22;4904;49.152;11.004;2023-04-03T12:54:51;9.10;99.90
9730;DHT22;4904;49.152;11.004;2023-04-03T12:57:20;9.50;99.90
9730;DHT22;4904;49.152;11.004;2023-04-03T12:59:48;9.60;99.90
9730;DHT22;4904;49.152;11.004;2023-04-03T13:02:22;9.60;99.90
9730;DHT22;4904;49.152;11.004;2023-04-03T13:04:50;9.60;99.90
9730;DHT22;4904;49.152;11.004;2023-04-03T13:07:22;9.70;99.90
9730;DHT22;4904;49.152;11.004;2023-04-03T13:10:02;9.60;99.90
9730;DHT22;4904;49.152;11.004;2023-04-03T13:12:29;9.90;99.90
9730;DHT22;4904;49.152;11.004;2023-04-03T13:14:59;10.00;99.90
9730;DHT22;4904;49.152;11.004;2023-04-03T13:17:29;9.90;99.90
9730;DHT22;4904;49.152;11.004;2023-04-03T13:20:10;9.40;99.90
9730;DHT22;4904;49.152;11.004;2023-04-03T13:22:47;9.30;99.90
9730;DHT22;4904;49.152;11.004;2023-04-03T13:25:16;9.20;99.90
9730;DHT22;4904;49.152;11.004;2023-04-03T13:27:44;8.90;99.90
9730;DHT22;4904;49.152;11.004;2023-04-03T13:30:25;8.90;99.90
9730;DHT22;4904;49.152;11.004;2023-04-03T13:32:54;8.80;99.90
9730;DHT22;4904;49.152;11.004;2023-04-03T13:35:40;8.70;99.90
9730;DHT22;4904;49.152;11.004;2023-04-03T13:38:23;8.80;99.90
9730;DHT22;4904;49.152;11.004;2023-04-03T13:40:53;9.20;99.90
9730;DHT22;4904;49.152;11.004;2023-04-03T13:43:24;9.50;99.90
9730;DHT22;4904;49.152;11.004;2023-04-03T13:46:02;9.80;99.90
9730;DHT22;4904;49.152;11.004;2023-04-03T13:48:36;10.00;99.90
9730;DHT22;4904;49.152;11.004;2023-04-03T13:51:04;10.20;99.90
9730;DHT22;4904;49.152;11.004;2023-04-03T13:53:34;10.20;99.90
9730;DHT22;4904;49.152;11.004;2023-04-03T13:56:18;10.30;99.90
9730;DHT22;4904;49.152;11.004;2023-04-03T13:58:58;10.30;99.90
9730;DHT22;4904;49.152;11.004;2023-04-03T14:01:25;10.10;99.90
9730;DHT22;4904;49.152;11.004;2023-04-03T14:04:00;9.90;99.90
9730;DHT22;4904;49.152;11.004;2023-04-03T14:06:28;9.70;99.90
9730;DHT22;4904;49.152;11.004;2023-04-03T14:08:55;9.90;99.90
9730;DHT22;4904;49.152;11.004;2023-04-03T14:11:26;9.80;99.90
9730;DHT22;4904;49.152;11.004;2023-04-03T14:13:55;9.80;99.90
9730;DHT22;4904;49.152;11.004;2023-04-03T14:16:27;10.10;99.90
9730;DHT22;4904;49.152;11.004;2023-04-03T14:18:56;10.40;99.90
9730;DHT22;4904;49.152;11.004;2023-04-03T14:21:24;10.60;99.90
9730;DHT22;4904;49.152;11.004;2023-04-03T14:23:51;10.70;99.90
9730;DHT22;4904;49.152;11.004;2023-04-03T14:26:21;11.00;99.90
9730;DHT22;4904;49.152;11.004;2023-04-03T14:28:52;10.80;99.90
9730;DHT22;4904;49.152;11.004;2023-04-03T14:31:22;10.90;99.90
9730;DHT22;4904;49.152;11.004;2023-04-03T14:33:50;10.90;99.90
9730;DHT22;4904;49.152;11.004;2023-04-03T14:36:19;10.80;99.90
9730;DHT22;4904;49.152;11.004;2023-04-03T14:38:48;10.80;99.90
9730;DHT22;4904;49.152;11.004;2023-04-03T14:41:18;10.60;99.90
9730;DHT22;4904;49.152;11.004;2023-04-03T14:43:46;10.40;99.90
9730;DHT22;4904;49.152;11.004;2023-04-03T14:46:17;10.20;99.90
9730;DHT22;4904;49.152;11.004;2023-04-03T14:48:45;10.30;99.90
9730;DHT22;4904;49.152;11.004;2023-04-03T14:51:13;10.10;99.90
9730;DHT22;4904;49.152;11.004;2023-04-03T14:53:41;10.40;99.90
9730;DHT22;4904;49.152;11.004;2023-04-03T14:56:13;11.00;99.90
9730;DHT22;4904;49.152;11.004;2023-04-03T14:58:41;11.90;99.90
9730;DHT22;4904;49.152;11.004;2023-04-03T15:01:10;12.50;99.90
9730;DHT22;4904;49.152;11.004;2023-04-03T15:03:38;11.90;99.90
9730;DHT22;4904;49.152;11.004;2023-04-03T15:06:05;11.50;99.90
9730;DHT22;4904;49.152;11.004;2023-04-03T15:08:32;11.30;99.90
9730;DHT22;4904;49.152;11.004;2023-04-03T15:10:59;11.20;99.90
9730;DHT22;4904;49.152;11.004;2023-04-03T15:13:26;10.90;99.90
9730;DHT22;4904;49.152;11.004;2023-04-03T15:15:53;10.90;99.90
9730;DHT22;4904;49.152;11.004;2023-04-03T15:18:24;11.50;99.90
9730;DHT22;4904;49.152;11.004;2023-04-03T15:20:53;12.30;99.90
9730;DHT22;4904;49.152;11.004;2023-04-03T15:23:21;12.90;99.90
9730;DHT22;4904;49.152;11.004;2023-04-03T15:25:52;12.50;99.90
9730;DHT22;4904;49.152;11.004;2023-04-03T15:28:22;12.50;99.90
9730;DHT22;4904;49.152;11.004;2023-04-03T15:30:50;12.20;99.90
9730;DHT22;4904;49.152;11.004;2023-04-03T15:33:17;12.00;99.90
9730;DHT22;4904;49.152;11.004;2023-04-03T15:35:44;11.80;99.90
9730;DHT22;4904;49.152;11.004;2023-04-03T15:38:12;11.60;99.90
9730;DHT22;4904;49.152;11.004;2023-04-03T15:40:40;11.50;99.90
9730;DHT22;4904;49.152;11.004;2023-04-03T15:43:08;11.30;99.90
9730;DHT22;4904;49.152;11.004;2023-04-03T15:45:36;10.80;99.90
9730;DHT22;4904;49.152;11.004;2023-04-03T15:48:04;10.70;99.90
9730;DHT22;4904;49.152;11.004;2023-04-03T15:50:32;10.50;99.90
9730;DHT22;4904;49.152;11.004;2023-04-03T15:53:00;11.10;99.90
9730;DHT22;4904;49.152;11.004;2023-04-03T15:55:30;11.20;99.90
9730;DHT22;4904;49.152;11.004;2023-04-03T15:58:00;11.10;99.90
9730;DHT22;4904;49.152;11.004;2023-04-03T16:00:28;11.80;99.90
9730;DHT22;4904;49.152;11.004;2023-04-03T16:02:58;12.60;99.90
9730;DHT22;4904;49.152;11.004;2023-04-03T16:05:26;12.10;99.90
9730;DHT22;4904;49.152;11.004;2023-04-03T16:07:53;11.70;99.90
9730;DHT22;4904;49.152;11.004;2023-04-03T16:10:21;11.10;99.90
9730;DHT22;4904;49.152;11.004;2023-04-03T16:12:49;10.80;99.90
9730;DHT22;4904;49.152;11.004;2023-04-03T16:15:16;10.50;99.90
9730;DHT22;4904;49.152;11.004;2023-04-03T16:17:43;10.40;99.90
9730;DHT22;4904;49.152;11.004;2023-04-03T16:20:11;10.00;99.90
9730;DHT22;4904;49.152;11.004;2023-04-03T16:22:39;9.40;99.90
9730;DHT22;4904;49.152;11.004;2023-04-03T16:25:08;9.20;99.90
9730;DHT22;4904;49.152;11.004;2023-04-03T16:27:35;9.10;99.90